Time;durP1;ratioP1;P1;durP2;ratioP2;P2;SDS_P1;SDS_P2;PMS_P1;PMS_P2;Temp;Humidity;BMP_temperature;BMP_pressure;BME280_temperature;BME280_humidity;BME280_pressure;Samples;Min_cycle;Max_cycle;Signal;HPM_P1;HPM_P2
2023/11/15 00:01:37;;;;;;;25.20;23.85;;;;;;;;;;5061194;28;20032;-65
2023/11/15 00:04:03;;;;;;;26.13;24.73;;;;;;;;;;5065549;28;20060;-67
2023/11/15 00:06:28;;;;;;;23.80;22.50;;;;;;;;;;5065174;28;20466;-66
2023/11/15 00:08:53;;;;;;;24.33;23.02;;;;;;;;;;5062050;28;20044;-66
2023/11/15 00:11:19;;;;;;;24.92;23.63;;;;;;;;;;5063994;28;20028;-66
2023/11/15 00:13:50;;;;;;;25.02;23.73;;;;;;;;;;5065542;28;20059;-66
2023/11/15 00:16:17;;;;;;;25.02;23.73;;;;;;;;;;5064183;28;20073;-66
2023/11/15 00:18:42;;;;;;;24.55;23.25;;;;;;;;;;5061653;28;20025;-66
2023/11/15 00:21:08;;;;;;;24.52;23.23;;;;;;;;;;5063351;28;20037;-67
2023/11/15 00:23:35;;;;;;;25.30;24.00;;;;;;;;;;5063506;28;20705;-67
2023/11/15 00:26:01;;;;;;;23.23;21.92;;;;;;;;;;5064775;28;20065;-67
2023/11/15 00:28:26;;;;;;;25.52;24.15;;;;;;;;;;5065068;28;20062;-66
2023/11/15 00:30:52;;;;;;;26.55;24.50;;;;;;;;;;5061452;28;20033;-66
2023/11/15 00:33:17;;;;;;;25.15;23.85;;;;;;;;;;5059010;28;20123;-65
2023/11/15 00:35:43;;;;;;;25.77;24.42;;;;;;;;;;5058836;28;20024;-66
2023/11/15 00:38:11;;;;;;;23.83;22.52;;;;;;;;;;5061344;28;20534;-67
2023/11/15 00:40:37;;;;;;;25.23;23.90;;;;;;;;;;5062377;28;20056;-66
2023/11/15 00:43:03;;;;;;;23.67;22.40;;;;;;;;;;5062290;28;20028;-67
2023/11/15 00:45:29;;;;;;;22.55;21.35;;;;;;;;;;5064380;28;20102;-66
2023/11/15 00:47:54;;;;;;;22.58;21.38;;;;;;;;;;5058758;28;20461;-66
2023/11/15 00:50:20;;;;;;;20.85;19.75;;;;;;;;;;5068255;28;20029;-67
2023/11/15 00:52:45;;;;;;;22.17;20.98;;;;;;;;;;5063110;28;20036;-66
2023/11/15 00:55:12;;;;;;;22.73;21.42;;;;;;;;;;5063814;28;20037;-66
2023/11/15 00:57:38;;;;;;;20.48;19.05;;;;;;;;;;5060226;28;20120;-66
2023/11/15 01:00:21;;;;;;;22.10;20.90;;;;;;;;;;5055449;28;20032;-66
2023/11/15 01:02:48;;;;;;;24.05;22.75;;;;;;;;;;5060949;28;20063;-62
2023/11/15 01:05:13;;;;;;;25.38;24.00;;;;;;;;;;5059583;28;20045;-62
2023/11/15 01:07:39;;;;;;;23.98;22.67;;;;;;;;;;5061654;28;20467;-62
2023/11/15 01:10:09;;;;;;;23.95;22.67;;;;;;;;;;5060462;28;20178;-63
2023/11/15 01:12:35;;;;;;;23.38;22.15;;;;;;;;;;5056769;28;20029;-62
2023/11/15 01:15:01;;;;;;;24.73;23.42;;;;;;;;;;5061583;28;20098;-62
2023/11/15 01:17:28;;;;;;;23.98;22.67;;;;;;;;;;5065380;28;20434;-62
2023/11/15 01:19:53;;;;;;;25.80;24.40;;;;;;;;;;5063106;28;20049;-62
2023/11/15 01:22:19;;;;;;;25.00;23.67;;;;;;;;;;5060535;28;20083;-62
2023/11/15 01:24:44;;;;;;;25.80;24.42;;;;;;;;;;5058721;28;20032;-62
2023/11/15 01:27:09;;;;;;;27.20;25.70;;;;;;;;;;5061796;28;20051;-62
2023/11/15 01:29:35;;;;;;;24.90;23.60;;;;;;;;;;5055410;28;20045;-62
2023/11/15 01:32:02;;;;;;;27.35;25.77;;;;;;;;;;5066542;28;20078;-62
2023/11/15 01:34:27;;;;;;;24.83;23.52;;;;;;;;;;5063368;28;20034;-62
2023/11/15 01:36:54;;;;;;;26.17;24.77;;;;;;;;;;5064032;28;20809;-62
2023/11/15 01:39:20;;;;;;;26.15;24.75;;;;;;;;;;5057936;28;20040;-62
2023/11/15 01:41:50;;;;;;;26.25;24.85;;;;;;;;;;5060946;28;20422;-63
2023/11/15 01:44:16;;;;;;;24.83;23.52;;;;;;;;;;5056503;28;20492;-62
2023/11/15 01:46:44;;;;;;;24.48;23.17;;;;;;;;;;5056757;28;20048;-62
2023/11/15 01:49:10;;;;;;;24.40;23.10;;;;;;;;;;5063638;28;20128;-62
2023/11/15 01:51:35;;;;;;;24.92;23.63;;;;;;;;;;5058032;28;20111;-62
2023/11/15 01:54:01;;;;;;;24.98;23.63;;;;;;;;;;5063643;28;20040;-68
2023/11/15 01:56:27;;;;;;;23.73;22.48;;;;;;;;;;5058455;28;20040;-68
2023/11/15 01:58:52;;;;;;;26.88;25.48;;;;;;;;;;5059929;28;20048;-67
2023/11/15 02:01:19;;;;;;;25.77;24.38;;;;;;;;;;5057862;28;20064;-67
2023/11/15 02:03:44;;;;;;;26.35;24.88;;;;;;;;;;5057534;28;20036;-62
2023/11/15 02:06:10;;;;;;;26.17;24.80;;;;;;;;;;5059933;28;20457;-66
2023/11/15 02:08:36;;;;;;;26.35;24.95;;;;;;;;;;5061303;28;20033;-62
2023/11/15 02:11:01;;;;;;;24.65;23.35;;;;;;;;;;5061634;28;20113;-67
2023/11/15 02:13:27;;;;;;;24.98;23.67;;;;;;;;;;5059243;28;20089;-62
2023/11/15 02:15:55;;;;;;;26.45;24.10;;;;;;;;;;5057449;28;20130;-62
2023/11/15 02:18:21;;;;;;;25.75;24.40;;;;;;;;;;5063193;28;20037;-62
2023/11/15 02:20:47;;;;;;;25.90;24.52;;;;;;;;;;5060265;28;20051;-67
2023/11/15 02:23:13;;;;;;;25.88;24.50;;;;;;;;;;5057601;28;20035;-63
2023/11/15 02:25:40;;;;;;;26.73;25.33;;;;;;;;;;5061069;28;20040;-67
2023/11/15 02:28:06;;;;;;;27.65;26.23;;;;;;;;;;5058525;28;20040;-67
2023/11/15 02:30:32;;;;;;;28.27;26.38;;;;;;;;;;5060204;28;20037;-62
2023/11/15 02:32:57;;;;;;;26.65;25.25;;;;;;;;;;5061590;28;20044;-68
2023/11/15 02:35:22;;;;;;;28.60;26.67;;;;;;;;;;5061036;28;20476;-67
2023/11/15 02:37:48;;;;;;;28.23;26.73;;;;;;;;;;5060411;28;20045;-62
2023/11/15 02:40:13;;;;;;;28.30;26.80;;;;;;;;;;5059396;28;20033;-67
2023/11/15 02:42:39;;;;;;;26.58;25.17;;;;;;;;;;5062429;28;20039;-68
2023/11/15 02:45:05;;;;;;;27.70;26.23;;;;;;;;;;5057857;28;20037;-62
2023/11/15 02:47:30;;;;;;;27.58;26.15;;;;;;;;;;5058839;28;20674;-70
2023/11/15 02:49:55;;;;;;;30.23;25.50;;;;;;;;;;5063247;28;23950;-69
2023/11/15 02:52:21;;;;;;;25.02;23.73;;;;;;;;;;5059403;28;20105;-70
2023/11/15 02:54:51;;;;;;;29.13;27.52;;;;;;;;;;5058393;28;20059;-70
2023/11/15 02:57:16;;;;;;;27.27;25.87;;;;;;;;;;5061441;28;20037;-70
2023/11/15 02:59:42;;;;;;;27.13;25.70;;;;;;;;;;5056403;28;20773;-62
2023/11/15 03:02:08;;;;;;;28.92;27.42;;;;;;;;;;5062816;28;20032;-62
2023/11/15 03:04:33;;;;;;;30.90;29.10;;;;;;;;;;5055705;28;20036;-69
2023/11/15 03:06:58;;;;;;;31.50;29.90;;;;;;;;;;5061827;28;20052;-69
2023/11/15 03:09:24;;;;;;;31.02;29.23;;;;;;;;;;5059720;28;20043;-62
2023/11/15 03:11:49;;;;;;;30.30;28.70;;;;;;;;;;5056657;28;20036;-62
2023/11/15 03:14:14;;;;;;;30.73;29.13;;;;;;;;;;5063077;28;20036;-67
2023/11/15 03:16:40;;;;;;;31.20;29.60;;;;;;;;;;5059078;28;20054;-68
2023/11/15 03:19:06;;;;;;;32.30;30.65;;;;;;;;;;5059396;28;20036;-69
2023/11/15 03:21:32;;;;;;;29.40;27.83;;;;;;;;;;5059085;28;20051;-68
2023/11/15 03:23:57;;;;;;;31.65;30.02;;;;;;;;;;5056581;28;20380;-62
2023/11/15 03:26:22;;;;;;;29.70;28.17;;;;;;;;;;5064215;28;20033;-62
2023/11/15 03:28:48;;;;;;;31.17;28.88;;;;;;;;;;5063798;28;20024;-62
2023/11/15 03:31:13;;;;;;;29.23;27.63;;;;;;;;;;5064731;28;20042;-67
2023/11/15 03:33:40;;;;;;;30.05;28.48;;;;;;;;;;5062910;28;20123;-67
2023/11/15 03:36:06;;;;;;;27.60;26.17;;;;;;;;;;5064685;28;20037;-67
2023/11/15 03:38:34;;;;;;;30.30;28.70;;;;;;;;;;5063168;28;20047;-67
2023/11/15 03:41:00;;;;;;;30.23;28.63;;;;;;;;;;5063540;28;20052;-69
2023/11/15 03:43:26;;;;;;;26.98;25.58;;;;;;;;;;5066011;28;20111;-61
2023/11/15 03:45:54;;;;;;;27.58;26.08;;;;;;;;;;5060990;28;20616;-67
2023/11/15 03:48:20;;;;;;;27.52;26.10;;;;;;;;;;5065852;28;20040;-69
2023/11/15 03:50:45;;;;;;;29.85;28.30;;;;;;;;;;5062724;28;20039;-61
2023/11/15 03:53:11;;;;;;;28.17;26.67;;;;;;;;;;5066065;28;20039;-61
2023/11/15 03:55:36;;;;;;;28.63;27.13;;;;;;;;;;5062270;28;20028;-66
2023/11/15 03:58:02;;;;;;;26.75;25.35;;;;;;;;;;5068057;28;20029;-61
2023/11/15 04:00:28;;;;;;;27.95;26.48;;;;;;;;;;5064628;28;20183;-61
2023/11/15 04:02:53;;;;;;;27.15;25.75;;;;;;;;;;5062164;28;20051;-61
2023/11/15 04:05:18;;;;;;;26.10;24.70;;;;;;;;;;5064811;28;20036;-61
2023/11/15 04:07:44;;;;;;;27.05;25.65;;;;;;;;;;5061233;28;20035;-66
2023/11/15 04:10:10;;;;;;;29.13;27.52;;;;;;;;;;5062378;28;20051;-68
2023/11/15 04:12:37;;;;;;;29.25;27.55;;;;;;;;;;5065066;28;20021;-68
2023/11/15 04:15:03;;;;;;;30.23;28.63;;;;;;;;;;5059458;28;20040;-67
2023/11/15 04:17:29;;;;;;;28.88;27.38;;;;;;;;;;5064625;28;20079;-67
2023/11/15 04:19:54;;;;;;;30.15;28.55;;;;;;;;;;5064814;28;21144;-67
2023/11/15 04:22:20;;;;;;;31.38;29.77;;;;;;;;;;5061723;28;20036;-66
2023/11/15 04:24:46;;;;;;;33.42;31.65;;;;;;;;;;5064375;28;20119;-60
2023/11/15 04:27:12;;;;;;;30.08;28.52;;;;;;;;;;5063482;28;20033;-60
2023/11/15 04:29:39;;;;;;;30.52;28.92;;;;;;;;;;5062087;28;20111;-60
2023/11/15 04:32:05;;;;;;;30.17;28.23;;;;;;;;;;5063343;28;20021;-66
2023/11/15 04:34:31;;;;;;;30.42;28.83;;;;;;;;;;5063273;28;20028;-66
2023/11/15 04:36:57;;;;;;;31.58;29.98;;;;;;;;;;5064713;28;20055;-66
2023/11/15 04:39:24;;;;;;;29.27;27.77;;;;;;;;;;5061445;28;20032;-60
2023/11/15 04:41:52;;;;;;;30.70;29.10;;;;;;;;;;5062541;28;20118;-67
2023/11/15 04:44:19;;;;;;;29.48;27.95;;;;;;;;;;5067693;28;20033;-66
2023/11/15 04:46:46;;;;;;;29.90;28.33;;;;;;;;;;5060795;28;20446;-66
2023/11/15 04:49:11;;;;;;;30.38;28.77;;;;;;;;;;5063662;28;20036;-67
2023/11/15 04:51:36;;;;;;;31.73;30.10;;;;;;;;;;5064565;28;20090;-67
2023/11/15 04:54:03;;;;;;;30.05;28.45;;;;;;;;;;5062971;28;20474;-61
2023/11/15 04:56:28;;;;;;;31.65;29.95;;;;;;;;;;5065068;28;20063;-66
2023/11/15 04:58:54;;;;;;;30.08;28.50;;;;;;;;;;5068787;28;20056;-65
2023/11/15 05:01:19;;;;;;;31.00;29.40;;;;;;;;;;5063518;28;20120;-66
2023/11/15 05:03:45;;;;;;;29.38;27.88;;;;;;;;;;5064027;28;20111;-65
2023/11/15 05:06:11;;;;;;;29.35;27.30;;;;;;;;;;5060352;28;20036;-65
2023/11/15 05:08:36;;;;;;;28.73;27.23;;;;;;;;;;5062951;28;20047;-66
2023/11/15 05:11:02;;;;;;;28.95;27.45;;;;;;;;;;5061792;28;20050;-61
2023/11/15 05:13:29;;;;;;;30.08;28.48;;;;;;;;;;5068463;28;20044;-65
2023/11/15 05:15:55;;;;;;;29.35;27.65;;;;;;;;;;5061627;28;20443;-60
2023/11/15 05:18:20;;;;;;;30.15;28.42;;;;;;;;;;5063276;28;20043;-60
2023/11/15 05:20:46;;;;;;;30.17;28.58;;;;;;;;;;5064289;28;20029;-60
2023/11/15 05:23:11;;;;;;;29.35;27.85;;;;;;;;;;5063576;28;20028;-60
2023/11/15 05:25:37;;;;;;;30.35;28.75;;;;;;;;;;5062003;28;20308;-66
2023/11/15 05:28:02;;;;;;;32.00;30.35;;;;;;;;;;5063600;28;20031;-60
2023/11/15 05:30:28;;;;;;;31.25;29.45;;;;;;;;;;5060315;28;20040;-61
2023/11/15 05:32:54;;;;;;;33.28;31.48;;;;;;;;;;5063182;28;20489;-60
2023/11/15 05:35:19;;;;;;;33.03;31.02;;;;;;;;;;5058264;28;20056;-66
2023/11/15 05:37:45;;;;;;;33.92;32.03;;;;;;;;;;5066092;28;20032;-66
2023/11/15 05:40:15;;;;;;;32.55;30.85;;;;;;;;;;5059313;28;20410;-66
2023/11/15 05:42:41;;;;;;;32.70;31.00;;;;;;;;;;5062963;28;20028;-60
2023/11/15 05:45:07;;;;;;;32.80;31.13;;;;;;;;;;5063713;28;20121;-60
2023/11/15 05:47:33;;;;;;;34.47;32.38;;;;;;;;;;5063597;28;20036;-66
2023/11/15 05:49:58;;;;;;;33.80;32.05;;;;;;;;;;5060072;28;20146;-60
2023/11/15 05:52:24;;;;;;;34.25;32.25;;;;;;;;;;5062994;28;20032;-60
2023/11/15 05:54:49;;;;;;;34.13;32.35;;;;;;;;;;5061899;28;20481;-60
2023/11/15 05:57:15;;;;;;;33.67;31.88;;;;;;;;;;5051209;28;20082;-60
2023/11/15 05:59:40;;;;;;;35.20;33.38;;;;;;;;;;5062420;28;20553;-67
2023/11/15 06:02:06;;;;;;;32.70;31.00;;;;;;;;;;5064473;28;20111;-67
2023/11/15 06:04:34;;;;;;;33.97;32.08;;;;;;;;;;5063423;28;20450;-61
2023/11/15 06:07:00;;;;;;;33.28;31.55;;;;;;;;;;5062820;28;20037;-61
2023/11/15 06:09:27;;;;;;;33.05;31.35;;;;;;;;;;5062012;28;20098;-59
2023/11/15 06:11:53;;;;;;;33.88;32.15;;;;;;;;;;5066078;28;20074;-66
2023/11/15 06:14:18;;;;;;;37.90;35.90;;;;;;;;;;5060272;28;20032;-61
2023/11/15 06:16:44;;;;;;;41.13;39.05;;;;;;;;;;5063676;28;20040;-61
2023/11/15 06:19:09;;;;;;;42.22;40.05;;;;;;;;;;5066275;28;20105;-60
2023/11/15 06:21:35;;;;;;;45.10;42.80;;;;;;;;;;5066078;28;20032;-66
2023/11/15 06:24:01;;;;;;;40.72;38.65;;;;;;;;;;5065319;28;20037;-66
2023/11/15 06:26:28;;;;;;;45.45;43.05;;;;;;;;;;5064174;28;20681;-66
2023/11/15 06:28:54;;;;;;;45.47;43.15;;;;;;;;;;5066291;28;20465;-60
2023/11/15 06:31:21;;;;;;;47.65;45.17;;;;;;;;;;5061546;28;20052;-61
2023/11/15 06:33:46;;;;;;;45.33;43.00;;;;;;;;;;5067646;28;20040;-61
2023/11/15 06:36:12;;;;;;;47.83;45.30;;;;;;;;;;5067510;28;20032;-60
2023/11/15 06:38:37;;;;;;;49.03;46.25;;;;;;;;;;5063128;28;20044;-61
2023/11/15 06:41:08;;;;;;;49.30;46.78;;;;;;;;;;5063502;28;20051;-61
2023/11/15 06:43:34;;;;;;;;;;;;;;;;;;5065361;28;20086;-66
2023/11/15 06:45:59;;;;;;;46.85;44.47;;;;;;;;;;5064053;28;19924;-67
2023/11/15 06:48:25;;;;;;;48.30;45.67;;;;;;;;;;5065609;28;20032;-64
2023/11/15 06:50:50;;;;;;;46.22;43.90;;;;;;;;;;5063657;28;20032;-61
2023/11/15 06:53:16;;;;;;;48.33;45.88;;;;;;;;;;5062387;28;20477;-66
2023/11/15 06:55:41;;;;;;;46.35;43.80;;;;;;;;;;5065635;28;20123;-61
2023/11/15 06:58:10;;;;;;;47.15;44.75;;;;;;;;;;5064115;28;20056;-61
2023/11/15 07:00:35;;;;;;;45.22;42.92;;;;;;;;;;5065193;28;20643;-61
2023/11/15 07:03:03;;;;;;;46.78;44.38;;;;;;;;;;5065853;28;20043;-62
2023/11/15 07:05:31;;;;;;;46.53;44.17;;;;;;;;;;5067079;28;20025;-66
2023/11/15 07:07:56;;;;;;;46.33;43.83;;;;;;;;;;5066352;28;20036;-62
2023/11/15 07:10:22;;;;;;;46.92;44.53;;;;;;;;;;5070194;28;20038;-61
2023/11/15 07:12:47;;;;;;;46.10;43.80;;;;;;;;;;5064954;28;20045;-66
2023/11/15 07:15:16;;;;;;;49.50;45.83;;;;;;;;;;5066522;28;20043;-64
2023/11/15 07:17:41;;;;;;;48.65;46.15;;;;;;;;;;5067441;28;20138;-65
2023/11/15 07:20:09;;;;;;;47.85;45.45;;;;;;;;;;5066608;28;20107;-64
2023/11/15 07:22:37;;;;;;;46.33;43.95;;;;;;;;;;5066947;28;20028;-66
2023/11/15 07:25:04;;;;;;;44.08;41.88;;;;;;;;;;5063917;28;20029;-62
2023/11/15 07:27:31;;;;;;;42.60;40.40;;;;;;;;;;5067499;28;20081;-65
2023/11/15 07:29:58;;;;;;;42.03;39.90;;;;;;;;;;5065964;28;20037;-66
2023/11/15 07:32:23;;;;;;;43.40;41.08;;;;;;;;;;5064027;28;20035;-65
2023/11/15 07:34:49;;;;;;;47.22;44.72;;;;;;;;;;5065741;28;20032;-60
2023/11/15 07:37:14;;;;;;;44.08;41.38;;;;;;;;;;5067083;28;20040;-61
2023/11/15 07:39:41;;;;;;;44.42;42.15;;;;;;;;;;5065134;28;20036;-61
2023/11/15 07:42:06;;;;;;;44.78;42.50;;;;;;;;;;5062704;28;20123;-62
2023/11/15 07:44:31;;;;;;;43.42;41.22;;;;;;;;;;5063631;28;20158;-61
2023/11/15 07:46:58;;;;;;;44.60;42.30;;;;;;;;;;5062674;28;20050;-61
2023/11/15 07:49:24;;;;;;;39.50;37.50;;;;;;;;;;5066212;28;20036;-61
2023/11/15 07:51:50;;;;;;;38.30;36.33;;;;;;;;;;5062197;28;20042;-65
2023/11/15 07:54:16;;;;;;;40.03;37.92;;;;;;;;;;5064923;28;20052;-61
2023/11/15 07:56:42;;;;;;;38.20;36.05;;;;;;;;;;5062288;28;20032;-61
2023/11/15 07:59:08;;;;;;;36.70;34.80;;;;;;;;;;5066511;28;20033;-62
2023/11/15 08:01:34;;;;;;;38.42;36.38;;;;;;;;;;5065061;28;20047;-66
2023/11/15 08:04:01;;;;;;;35.75;33.92;;;;;;;;;;5065705;28;20135;-65
2023/11/15 08:06:27;;;;;;;39.08;36.97;;;;;;;;;;5067414;28;20058;-62
2023/11/15 08:08:54;;;;;;;39.65;37.60;;;;;;;;;;5064606;28;20040;-66
2023/11/15 08:11:22;;;;;;;37.38;35.38;;;;;;;;;;5066224;28;20551;-65
2023/11/15 08:13:47;;;;;;;38.15;36.05;;;;;;;;;;5069107;28;20484;-64
2023/11/15 08:16:15;;;;;;;38.90;36.90;;;;;;;;;;5065736;28;20033;-66
2023/11/15 08:18:42;;;;;;;36.60;34.70;;;;;;;;;;5062891;28;20033;-62
2023/11/15 08:21:09;;;;;;;36.03;34.17;;;;;;;;;;5063213;28;20032;-66
2023/11/15 08:23:35;;;;;;;37.17;35.28;;;;;;;;;;5063467;28;20580;-65
2023/11/15 08:26:02;;;;;;;36.28;34.40;;;;;;;;;;5065105;28;20055;-61
2023/11/15 08:28:30;;;;;;;38.63;36.53;;;;;;;;;;5064456;28;20047;-65
2023/11/15 08:30:56;;;;;;;37.13;35.20;;;;;;;;;;5064098;28;20138;-62
2023/11/15 08:33:21;;;;;;;36.65;34.65;;;;;;;;;;5064833;28;20119;-61
2023/11/15 08:35:47;;;;;;;37.08;35.17;;;;;;;;;;5068249;28;20036;-61
2023/11/15 08:38:14;;;;;;;39.13;37.10;;;;;;;;;;5063822;28;20441;-64
2023/11/15 08:40:39;;;;;;;38.85;36.88;;;;;;;;;;5061819;28;20111;-65
2023/11/15 08:43:07;;;;;;;38.17;36.20;;;;;;;;;;5063262;28;20105;-65
2023/11/15 08:45:32;;;;;;;35.95;34.03;;;;;;;;;;5061693;28;20102;-67
2023/11/15 08:47:58;;;;;;;40.40;38.33;;;;;;;;;;5063022;28;20040;-66
2023/11/15 08:50:24;;;;;;;39.33;36.72;;;;;;;;;;5062732;28;20043;-62
2023/11/15 08:52:49;;;;;;;38.38;36.40;;;;;;;;;;5066509;28;20026;-62
2023/11/15 08:55:15;;;;;;;40.67;38.58;;;;;;;;;;5065220;28;20416;-65
2023/11/15 08:57:40;;;;;;;42.85;40.67;;;;;;;;;;5062461;28;20051;-66
2023/11/15 09:00:12;;;;;;;42.25;40.10;;;;;;;;;;5061254;28;20032;-65
2023/11/15 09:02:42;;;;;;;41.67;39.55;;;;;;;;;;5064047;28;20060;-62
2023/11/15 09:05:08;;;;;;;43.25;40.85;;;;;;;;;;5066280;28;20088;-62
2023/11/15 09:07:33;;;;;;;43.40;41.20;;;;;;;;;;5064947;28;20044;-65
2023/11/15 09:09:59;;;;;;;43.30;39.35;;;;;;;;;;5066278;28;20036;-62
2023/11/15 09:12:30;;;;;;;38.97;36.60;;;;;;;;;;5067341;28;20032;-62
2023/11/15 09:14:59;;;;;;;36.80;34.88;;;;;;;;;;5063748;28;20059;-62
2023/11/15 09:17:25;;;;;;;36.90;35.00;;;;;;;;;;5064411;28;20036;-61
2023/11/15 09:19:56;;;;;;;37.72;35.83;;;;;;;;;;5064668;28;20036;-65
2023/11/15 09:22:22;;;;;;;38.85;36.17;;;;;;;;;;5066665;28;20052;-61
2023/11/15 09:24:51;;;;;;;34.40;32.53;;;;;;;;;;5060856;28;20025;-61
2023/11/15 09:27:17;;;;;;;33.78;32.00;;;;;;;;;;5064308;28;20044;-61
2023/11/15 09:29:43;;;;;;;34.45;32.65;;;;;;;;;;5060210;28;20028;-62
2023/11/15 09:32:10;;;;;;;33.08;31.38;;;;;;;;;;5065465;28;20040;-62
2023/11/15 09:34:38;;;;;;;37.13;35.22;;;;;;;;;;5062430;28;20129;-61
2023/11/15 09:37:04;;;;;;;32.92;31.23;;;;;;;;;;5064635;28;20027;-61
2023/11/15 09:39:29;;;;;;;31.25;29.65;;;;;;;;;;5066235;28;20036;-62
2023/11/15 09:41:55;;;;;;;34.28;32.47;;;;;;;;;;5065112;28;20137;-61
2023/11/15 09:44:23;;;;;;;30.52;28.92;;;;;;;;;;5063145;28;20040;-61
2023/11/15 09:46:52;;;;;;;30.80;29.20;;;;;;;;;;5061426;28;20154;-65
2023/11/15 09:49:20;;;;;;;33.67;31.88;;;;;;;;;;5062375;28;20036;-64
2023/11/15 09:51:45;;;;;;;33.72;30.58;;;;;;;;;;5061227;28;20028;-61
2023/11/15 09:54:12;;;;;;;37.60;35.47;;;;;;;;;;5062550;28;20058;-61
2023/11/15 09:56:40;;;;;;;36.88;34.97;;;;;;;;;;5067618;28;20075;-61
2023/11/15 09:59:06;;;;;;;37.78;35.75;;;;;;;;;;5064099;28;20178;-67
2023/11/15 10:01:31;;;;;;;36.70;34.80;;;;;;;;;;5060015;28;20063;-66
2023/11/15 10:03:59;;;;;;;35.65;33.80;;;;;;;;;;5064250;28;20040;-61
2023/11/15 10:06:37;;;;;;;36.35;34.38;;;;;;;;;;5064795;28;21679;-61
2023/11/15 10:09:02;;;;;;;36.20;34.28;;;;;;;;;;5060793;28;20036;-65
2023/11/15 10:11:29;;;;;;;35.50;33.60;;;;;;;;;;5062165;28;20107;-65
2023/11/15 10:14:11;;;;;;;37.42;34.67;;;;;;;;;;5063020;28;20036;-61
2023/11/15 10:16:37;;;;;;;36.33;34.42;;;;;;;;;;5062761;28;20028;-61
2023/11/15 10:19:22;;;;;;;37.30;35.08;;;;;;;;;;5065529;28;20032;-62
2023/11/15 10:22:02;;;;;;;37.13;35.22;;;;;;;;;;5062130;28;20024;-65
2023/11/15 10:24:28;;;;;;;34.00;32.23;;;;;;;;;;5063196;28;20025;-61
2023/11/15 10:26:55;;;;;;;33.83;32.10;;;;;;;;;;5062138;28;20275;-61
2023/11/15 10:29:21;;;;;;;34.40;32.60;;;;;;;;;;5065878;28;20430;-66
2023/11/15 10:31:51;;;;;;;39.72;37.53;;;;;;;;;;5062064;28;20036;-65
2023/11/15 10:34:17;;;;;;;36.60;34.55;;;;;;;;;;5063439;28;20131;-64
2023/11/15 10:36:42;;;;;;;36.42;34.53;;;;;;;;;;5066048;28;20118;-64
2023/11/15 10:39:11;;;;;;;46.45;44.10;;;;;;;;;;5067595;28;20062;-61
2023/11/15 10:41:38;;;;;;;56.63;53.78;;;;;;;;;;5069121;28;20044;-61
2023/11/15 10:44:07;;;;;;;60.13;57.13;;;;;;;;;;5067562;28;20185;-65
2023/11/15 10:46:39;;;;;;;62.30;59.20;;;;;;;;;;5066983;28;20469;-61
2023/11/15 10:49:06;;;;;;;57.53;54.63;;;;;;;;;;5067315;28;20044;-61
2023/11/15 10:51:44;;;;;;;62.92;59.58;;;;;;;;;;5068482;28;20193;-61
2023/11/15 10:54:14;;;;;;;54.42;51.67;;;;;;;;;;5068577;28;20551;-62
2023/11/15 10:56:40;;;;;;;53.42;50.72;;;;;;;;;;5070043;28;20041;-67
2023/11/15 10:59:09;;;;;;;48.17;45.72;;;;;;;;;;5067689;28;20024;-66
2023/11/15 11:01:36;;;;;;;43.38;41.00;;;;;;;;;;5066304;28;20040;-63
2023/11/15 11:04:07;;;;;;;45.05;42.80;;;;;;;;;;5068351;28;20389;-63
2023/11/15 11:06:47;;;;;;;41.03;38.95;;;;;;;;;;5068451;28;20021;-63
2023/11/15 11:09:21;;;;;;;39.40;37.40;;;;;;;;;;5063836;28;20032;-63
2023/11/15 11:12:03;;;;;;;39.47;37.45;;;;;;;;;;5067085;28;20113;-63
2023/11/15 11:14:30;;;;;;;37.58;35.67;;;;;;;;;;5063049;28;20128;-67
2023/11/15 11:16:57;;;;;;;40.67;38.60;;;;;;;;;;5064481;28;20040;-63
2023/11/15 11:19:25;;;;;;;38.83;36.85;;;;;;;;;;5064462;28;20036;-63
2023/11/15 11:22:03;;;;;;;35.95;33.67;;;;;;;;;;5068523;28;20115;-62
2023/11/15 11:24:32;;;;;;;33.78;31.98;;;;;;;;;;5067818;28;20032;-62
2023/11/15 11:27:20;;;;;;;35.92;34.05;;;;;;;;;;5066756;28;20028;-66
2023/11/15 11:29:51;;;;;;;35.80;33.95;;;;;;;;;;5066977;28;20406;-66
2023/11/15 11:32:26;;;;;;;39.65;37.60;;;;;;;;;;5064795;28;20028;-65
2023/11/15 11:35:01;;;;;;;45.30;43.00;;;;;;;;;;5066593;28;20435;-66
2023/11/15 11:37:47;;;;;;;47.35;44.95;;;;;;;;;;5068237;28;20552;-62
2023/11/15 11:40:39;;;;;;;49.72;47.20;;;;;;;;;;5065850;28;20042;-63
2023/11/15 11:43:11;;;;;;;50.90;48.33;;;;;;;;;;5066964;28;20043;-62
2023/11/15 11:45:37;;;;;;;49.83;47.15;;;;;;;;;;5063517;28;20036;-65
2023/11/15 11:48:02;;;;;;;50.95;48.35;;;;;;;;;;5067296;28;20047;-65
2023/11/15 11:50:28;;;;;;;52.75;50.00;;;;;;;;;;5064009;28;20040;-66
2023/11/15 11:52:58;;;;;;;53.25;50.55;;;;;;;;;;5070049;28;20397;-66
2023/11/15 11:55:24;;;;;;;52.70;49.92;;;;;;;;;;5064820;28;20085;-66
2023/11/15 11:57:50;;;;;;;54.90;52.05;;;;;;;;;;5063930;28;20047;-62
2023/11/15 12:00:16;;;;;;;51.08;48.50;;;;;;;;;;5066138;28;20075;-62
2023/11/15 12:02:47;;;;;;;51.42;48.80;;;;;;;;;;5067089;28;20036;-65
2023/11/15 12:05:24;;;;;;;49.55;47.05;;;;;;;;;;5065938;28;20032;-65
2023/11/15 12:07:53;;;;;;;44.45;42.17;;;;;;;;;;5062922;28;20036;-65
2023/11/15 12:10:19;;;;;;;45.63;43.22;;;;;;;;;;5063456;28;20543;-62
2023/11/15 12:12:57;;;;;;;43.58;41.17;;;;;;;;;;5058950;28;20048;-62
2023/11/15 12:15:24;;;;;;;39.88;37.88;;;;;;;;;;5060102;28;20542;-65
2023/11/15 12:17:51;;;;;;;41.28;39.17;;;;;;;;;;5064733;28;20658;-62
2023/11/15 12:20:33;;;;;;;41.85;38.75;;;;;;;;;;5060178;28;20119;-62
2023/11/15 12:23:03;;;;;;;41.28;39.17;;;;;;;;;;5060989;28;20041;-62
2023/11/15 12:25:32;;;;;;;43.10;40.90;;;;;;;;;;5059103;28;20107;-64
2023/11/15 12:28:01;;;;;;;43.10;40.90;;;;;;;;;;5061724;28;20036;-65
2023/11/15 12:30:32;;;;;;;41.90;39.75;;;;;;;;;;5060340;28;20122;-65
2023/11/15 12:33:00;;;;;;;39.63;37.60;;;;;;;;;;5060286;28;20021;-62
2023/11/15 12:35:30;;;;;;;42.65;40.45;;;;;;;;;;5061110;28;20047;-62
2023/11/15 12:37:57;;;;;;;33.15;31.35;;;;;;;;;;5061301;28;20093;-64
2023/11/15 12:40:23;;;;;;;34.88;32.97;;;;;;;;;;5059491;28;20033;-64
2023/11/15 12:42:50;;;;;;;31.50;29.90;;;;;;;;;;5062768;28;20402;-65
2023/11/15 12:45:33;;;;;;;35.28;33.47;;;;;;;;;;5061428;28;20048;-66
2023/11/15 12:48:07;;;;;;;37.55;35.20;;;;;;;;;;5062605;28;20565;-65
2023/11/15 12:50:32;;;;;;;44.13;41.92;;;;;;;;;;5063097;28;20048;-65
2023/11/15 12:53:05;;;;;;;49.22;46.72;;;;;;;;;;5064385;28;20033;-66
2023/11/15 12:55:53;;;;;;;51.42;48.80;;;;;;;;;;5065257;28;20558;-66
2023/11/15 12:58:42;;;;;;;52.65;50.00;;;;;;;;;;5061098;28;20032;-62
2023/11/15 13:01:12;;;;;;;51.22;48.63;;;;;;;;;;5061148;28;20124;-62
2023/11/15 13:03:39;;;;;;;49.92;47.40;;;;;;;;;;5060766;28;20036;-65
2023/11/15 13:06:19;;;;;;;49.70;47.20;;;;;;;;;;5063874;28;20040;-65
2023/11/15 13:08:45;;;;;;;44.28;42.00;;;;;;;;;;5063048;28;20118;-65
2023/11/15 13:11:16;;;;;;;41.90;39.70;;;;;;;;;;5065876;28;20056;-66
2023/11/15 13:13:43;;;;;;;41.20;39.10;;;;;;;;;;5065685;28;20489;-61
2023/11/15 13:16:09;;;;;;;38.85;36.85;;;;;;;;;;5061038;28;20036;-62
2023/11/15 13:18:39;;;;;;;38.13;36.15;;;;;;;;;;5062774;28;20031;-62
2023/11/15 13:21:07;;;;;;;36.05;34.20;;;;;;;;;;5061171;28;20028;-62
2023/11/15 13:23:36;;;;;;;32.33;30.40;;;;;;;;;;5065118;28;20450;-66
2023/11/15 13:26:03;;;;;;;31.33;29.73;;;;;;;;;;5066122;28;20036;-65
2023/11/15 13:28:29;;;;;;;31.25;29.65;;;;;;;;;;5065107;28;20039;-65
2023/11/15 13:30:54;;;;;;;33.35;30.98;;;;;;;;;;5063671;28;20020;-62
2023/11/15 13:33:19;;;;;;;31.55;29.75;;;;;;;;;;5063502;28;20037;-62
2023/11/15 13:35:45;;;;;;;33.05;31.38;;;;;;;;;;5064469;28;20037;-63
2023/11/15 13:38:12;;;;;;;38.40;36.42;;;;;;;;;;5061297;28;20704;-61
2023/11/15 13:40:41;;;;;;;42.40;40.20;;;;;;;;;;5064560;28;20036;-65
2023/11/15 13:43:07;;;;;;;66.93;63.58;;;;;;;;;;5062140;28;20056;-64
2023/11/15 13:45:33;;;;;;;63.30;60.13;;;;;;;;;;5063595;28;20043;-62
2023/11/15 13:47:58;;;;;;;57.63;54.75;;;;;;;;;;5064324;28;20534;-66
2023/11/15 13:50:24;;;;;;;57.28;54.40;;;;;;;;;;5063890;28;20025;-63
2023/11/15 13:52:50;;;;;;;55.05;52.30;;;;;;;;;;5060160;28;20402;-62
2023/11/15 13:55:15;;;;;;;51.95;49.33;;;;;;;;;;5060409;28;20037;-62
2023/11/15 13:57:41;;;;;;;49.88;47.35;;;;;;;;;;5061214;28;20851;-62
2023/11/15 14:00:23;;;;;;;46.35;44.00;;;;;;;;;;5063925;28;20247;-62
2023/11/15 14:02:49;;;;;;;41.17;38.97;;;;;;;;;;5062099;28;20041;-63
2023/11/15 14:05:17;;;;;;;38.97;37.00;;;;;;;;;;5064263;28;20039;-67
2023/11/15 14:07:43;;;;;;;40.17;38.10;;;;;;;;;;5064844;28;20093;-66
2023/11/15 14:10:09;;;;;;;35.20;33.40;;;;;;;;;;5063102;28;20415;-67
2023/11/15 14:12:34;;;;;;;34.75;32.95;;;;;;;;;;5062388;28;20525;-67
2023/11/15 14:15:00;;;;;;;34.40;32.60;;;;;;;;;;5061379;28;20116;-63
2023/11/15 14:17:27;;;;;;;33.28;31.27;;;;;;;;;;5061619;28;20059;-63
2023/11/15 14:19:53;;;;;;;33.40;31.65;;;;;;;;;;5060274;28;20032;-63